sensor_id;sensor_type;location;lat;lon;timestamp;P1;durP1;ratioP1;P2;durP2;ratioP2
49820;SDS011;36893;52.520;13.450;2023-04-01T00:09:29;5.83;;;0.53;;
49820;SDS011;36893;52.520;13.450;2023-04-01T00:19:30;0.57;;;0.40;;
49820;SDS011;36893;52.520;13.450;2023-04-01T00:29:33;1.02;;;0.52;;
49820;SDS011;36893;52.520;13.450;2023-04-01T00:39:34;3.92;;;0.57;;
49820;SDS011;36893;52.520;13.450;2023-04-01T00:49:37;1.75;;;0.57;;
49820;SDS011;36893;52.520;13.450;2023-04-01T00:59:42;1.50;;;0.50;;
49820;SDS011;36893;52.520;13.450;2023-04-01T01:09:53;0.55;;;0.30;;
49820;SDS011;36893;52.520;13.450;2023-04-01T01:20:22;0.55;;;0.28;;
49820;SDS011;36893;52.520;13.450;2023-04-01T01:30:48;3.03;;;0.30;;
49820;SDS011;36893;52.520;13.450;2023-04-01T01:41:02;0.15;;;0.15;;
49820;SDS011;36893;52.520;13.450;2023-04-01T01:51:06;3.20;;;0.52;;
49820;SDS011;36893;52.520;13.450;2023-04-01T02:01:09;2.13;;;0.20;;
49820;SDS011;36893;52.520;13.450;2023-04-01T02:11:32;0.45;;;0.32;;
49820;SDS011;36893;52.520;13.450;2023-04-01T02:22:04;1.00;;;0.63;;
49820;SDS011;36893;52.520;13.450;2023-04-01T02:32:09;0.38;;;0.30;;
49820;SDS011;36893;52.520;13.450;2023-04-01T02:42:10;0.20;;;0.20;;
49820;SDS011;36893;52.520;13.450;2023-04-01T02:52:11;0.43;;;0.30;;
49820;SDS011;36893;52.520;13.450;2023-04-01T03:02:11;0.37;;;0.27;;
49820;SDS011;36893;52.520;13.450;2023-04-01T03:12:12;0.52;;;0.35;;
49820;SDS011;36893;52.520;13.450;2023-04-01T03:22:13;0.37;;;0.30;;
49820;SDS011;36893;52.520;13.450;2023-04-01T03:32:13;0.57;;;0.13;;
49820;SDS011;36893;52.520;13.450;2023-04-01T03:42:14;0.68;;;0.65;;
49820;SDS011;36893;52.520;13.450;2023-04-01T03:52:15;0.80;;;0.50;;
49820;SDS011;36893;52.520;13.450;2023-04-01T04:02:16;0.30;;;0.30;;
49820;SDS011;36893;52.520;13.450;2023-04-01T04:12:17;3.85;;;0.57;;
49820;SDS011;36893;52.520;13.450;2023-04-01T04:22:17;1.27;;;0.53;;
49820;SDS011;36893;52.520;13.450;2023-04-01T04:32:18;0.20;;;0.20;;
49820;SDS011;36893;52.520;13.450;2023-04-01T04:42:19;0.37;;;0.37;;
49820;SDS011;36893;52.520;13.450;2023-04-01T04:52:19;0.37;;;0.20;;
49820;SDS011;36893;52.520;13.450;2023-04-01T05:02:20;0.90;;;0.20;;
49820;SDS011;36893;52.520;13.450;2023-04-01T05:12:21;0.47;;;0.22;;
49820;SDS011;36893;52.520;13.450;2023-04-01T05:22:22;1.05;;;0.40;;
49820;SDS011;36893;52.520;13.450;2023-04-01T05:32:23;0.68;;;0.50;;
49820;SDS011;36893;52.520;13.450;2023-04-01T05:42:24;0.43;;;0.40;;
49820;SDS011;36893;52.520;13.450;2023-04-01T05:52:25;0.63;;;0.40;;
49820;SDS011;36893;52.520;13.450;2023-04-01T06:02:26;0.90;;;0.20;;
49820;SDS011;36893;52.520;13.450;2023-04-01T06:23:17;0.65;;;0.52;;
49820;SDS011;36893;52.520;13.450;2023-04-01T06:55:47;0.63;;;0.35;;
49820;SDS011;36893;52.520;13.450;2023-04-01T07:05:53;1.67;;;0.38;;
49820;SDS011;36893;52.520;13.450;2023-04-01T07:16:05;2.30;;;0.63;;
49820;SDS011;36893;52.520;13.450;2023-04-01T07:26:17;3.72;;;0.90;;
49820;SDS011;36893;52.520;13.450;2023-04-01T07:36:26;1.75;;;0.77;;
49820;SDS011;36893;52.520;13.450;2023-04-01T07:46:43;0.32;;;0.32;;
49820;SDS011;36893;52.520;13.450;2023-04-01T07:57:03;1.50;;;0.95;;
49820;SDS011;36893;52.520;13.450;2023-04-01T08:07:23;0.63;;;0.43;;
49820;SDS011;36893;52.520;13.450;2023-04-01T08:17:55;1.55;;;0.45;;
49820;SDS011;36893;52.520;13.450;2023-04-01T08:38:41;4.10;;;0.55;;
49820;SDS011;36893;52.520;13.450;2023-04-01T08:59:13;4.82;;;1.10;;
49820;SDS011;36893;52.520;13.450;2023-04-01T09:09:42;1.42;;;0.70;;
49820;SDS011;36893;52.520;13.450;2023-04-01T09:31:08;1.23;;;0.70;;
49820;SDS011;36893;52.520;13.450;2023-04-01T09:51:53;1.30;;;0.80;;
49820;SDS011;36893;52.520;13.450;2023-04-01T10:46:00;2.80;;;1.20;;
49820;SDS011;36893;52.520;13.450;2023-04-01T10:56:42;2.33;;;0.80;;
49820;SDS011;36893;52.520;13.450;2023-04-01T11:17:27;2.58;;;0.88;;
49820;SDS011;36893;52.520;13.450;2023-04-01T11:28:11;3.05;;;1.35;;
49820;SDS011;36893;52.520;13.450;2023-04-01T11:49:31;2.55;;;0.77;;
49820;SDS011;36893;52.520;13.450;2023-04-01T12:21:02;1.48;;;0.90;;
49820;SDS011;36893;52.520;13.450;2023-04-01T12:31:22;1.98;;;1.10;;
49820;SDS011;36893;52.520;13.450;2023-04-01T12:41:54;1.55;;;0.68;;
49820;SDS011;36893;52.520;13.450;2023-04-01T12:52:07;4.55;;;0.85;;
49820;SDS011;36893;52.520;13.450;2023-04-01T13:23:06;2.63;;;1.00;;
49820;SDS011;36893;52.520;13.450;2023-04-01T13:43:49;2.63;;;1.73;;
49820;SDS011;36893;52.520;13.450;2023-04-01T14:26:21;3.25;;;1.52;;
49820;SDS011;36893;52.520;13.450;2023-04-01T14:37:22;3.95;;;1.15;;
49820;SDS011;36893;52.520;13.450;2023-04-01T14:58:13;2.60;;;1.30;;
49820;SDS011;36893;52.520;13.450;2023-04-01T15:08:29;1.55;;;1.00;;
49820;SDS011;36893;52.520;13.450;2023-04-01T15:18:54;5.40;;;1.42;;
49820;SDS011;36893;52.520;13.450;2023-04-01T15:29:26;4.10;;;1.50;;
49820;SDS011;36893;52.520;13.450;2023-04-01T15:50:26;2.88;;;1.30;;
49820;SDS011;36893;52.520;13.450;2023-04-01T16:01:10;2.33;;;1.30;;
49820;SDS011;36893;52.520;13.450;2023-04-01T16:11:48;2.35;;;1.10;;
49820;SDS011;36893;52.520;13.450;2023-04-01T16:22:27;3.42;;;1.95;;
49820;SDS011;36893;52.520;13.450;2023-04-01T16:33:39;2.97;;;1.02;;
49820;SDS011;36893;52.520;13.450;2023-04-01T16:43:30;7.45;;;1.38;;
49820;SDS011;36893;52.520;13.450;2023-04-01T16:53:47;2.80;;;1.65;;
49820;SDS011;36893;52.520;13.450;2023-04-01T17:04:04;3.42;;;1.77;;
49820;SDS011;36893;52.520;13.450;2023-04-01T17:45:24;2.05;;;1.17;;
49820;SDS011;36893;52.520;13.450;2023-04-01T17:55:44;3.97;;;1.48;;
49820;SDS011;36893;52.520;13.450;2023-04-01T18:16:28;1.63;;;1.00;;
49820;SDS011;36893;52.520;13.450;2023-04-01T18:27:01;4.15;;;1.52;;
49820;SDS011;36893;52.520;13.450;2023-04-01T18:37:14;5.28;;;2.22;;
49820;SDS011;36893;52.520;13.450;2023-04-01T18:47:54;1.38;;;1.02;;
49820;SDS011;36893;52.520;13.450;2023-04-01T18:58:26;1.02;;;0.73;;
49820;SDS011;36893;52.520;13.450;2023-04-01T19:08:35;2.97;;;1.08;;
49820;SDS011;36893;52.520;13.450;2023-04-01T19:28:56;2.83;;;1.25;;
49820;SDS011;36893;52.520;13.450;2023-04-01T19:49:48;4.35;;;1.60;;
49820;SDS011;36893;52.520;13.450;2023-04-01T20:10:17;2.38;;;1.42;;
49820;SDS011;36893;52.520;13.450;2023-04-01T20:20:30;2.57;;;1.10;;
49820;SDS011;36893;52.520;13.450;2023-04-01T20:41:03;2.53;;;1.20;;
49820;SDS011;36893;52.520;13.450;2023-04-01T20:51:22;2.10;;;1.23;;
49820;SDS011;36893;52.520;13.450;2023-04-01T21:12:26;2.13;;;1.00;;
49820;SDS011;36893;52.520;13.450;2023-04-01T22:05:51;1.50;;;0.90;;
49820;SDS011;36893;52.520;13.450;2023-04-01T22:36:42;3.47;;;1.30;;
49820;SDS011;36893;52.520;13.450;2023-04-01T23:28:54;4.55;;;1.67;;
49820;SDS011;36893;52.520;13.450;2023-04-01T23:39:03;1.30;;;1.00;;
49820;SDS011;36893;52.520;13.450;2023-04-01T23:49:16;3.55;;;1.30;;
49820;SDS011;36893;52.520;13.450;2023-04-01T23:59:29;3.13;;;0.90;;
